sensor_id;sensor_type;location;lat;lon;timestamp;P1;durP1;ratioP1;P2;durP2;ratioP2
77722;SDS011;67811;42.656;23.394;2023-03-23T00:00:58;22.73;;;10.75;;
77722;SDS011;67811;42.656;23.394;2023-03-23T00:03:29;18.13;;;11.85;;
77722;SDS011;67811;42.656;23.394;2023-03-23T00:06:01;16.45;;;9.60;;
77722;SDS011;67811;42.656;23.394;2023-03-23T00:08:33;16.67;;;10.15;;
77722;SDS011;67811;42.656;23.394;2023-03-23T00:11:04;14.63;;;8.43;;
77722;SDS011;67811;42.656;23.394;2023-03-23T00:13:35;14.60;;;8.02;;
77722;SDS011;67811;42.656;23.394;2023-03-23T00:16:05;12.88;;;7.53;;
77722;SDS011;67811;42.656;23.394;2023-03-23T00:18:36;21.77;;;8.43;;
77722;SDS011;67811;42.656;23.394;2023-03-23T00:21:08;14.35;;;9.55;;
77722;SDS011;67811;42.656;23.394;2023-03-23T00:23:39;12.80;;;8.35;;
77722;SDS011;67811;42.656;23.394;2023-03-23T00:26:10;18.65;;;11.38;;
77722;SDS011;67811;42.656;23.394;2023-03-23T00:28:41;11.77;;;8.13;;
77722;SDS011;67811;42.656;23.394;2023-03-23T00:31:12;14.05;;;8.02;;
77722;SDS011;67811;42.656;23.394;2023-03-23T00:33:43;15.98;;;7.53;;
77722;SDS011;67811;42.656;23.394;2023-03-23T00:36:15;9.43;;;6.60;;
77722;SDS011;67811;42.656;23.394;2023-03-23T00:38:45;8.75;;;6.65;;
77722;SDS011;67811;42.656;23.394;2023-03-23T00:41:16;19.95;;;8.63;;
77722;SDS011;67811;42.656;23.394;2023-03-23T00:43:46;13.60;;;7.55;;
77722;SDS011;67811;42.656;23.394;2023-03-23T00:46:17;7.57;;;5.32;;
77722;SDS011;67811;42.656;23.394;2023-03-23T00:48:47;10.77;;;5.85;;
77722;SDS011;67811;42.656;23.394;2023-03-23T00:51:19;5.65;;;4.85;;
77722;SDS011;67811;42.656;23.394;2023-03-23T00:53:50;3.88;;;3.40;;
77722;SDS011;67811;42.656;23.394;2023-03-23T00:56:21;6.63;;;3.42;;
77722;SDS011;67811;42.656;23.394;2023-03-23T00:58:51;5.40;;;3.97;;
77722;SDS011;67811;42.656;23.394;2023-03-23T01:01:22;6.28;;;3.85;;
77722;SDS011;67811;42.656;23.394;2023-03-23T01:03:53;5.72;;;4.10;;
77722;SDS011;67811;42.656;23.394;2023-03-23T01:06:25;6.40;;;4.43;;
77722;SDS011;67811;42.656;23.394;2023-03-23T01:08:55;4.35;;;3.08;;
77722;SDS011;67811;42.656;23.394;2023-03-23T01:11:26;2.55;;;2.10;;
77722;SDS011;67811;42.656;23.394;2023-03-23T01:13:57;3.72;;;3.20;;
77722;SDS011;67811;42.656;23.394;2023-03-23T01:16:27;9.52;;;5.10;;
77722;SDS011;67811;42.656;23.394;2023-03-23T01:18:58;3.38;;;3.15;;
77722;SDS011;67811;42.656;23.394;2023-03-23T01:21:30;5.38;;;3.50;;
77722;SDS011;67811;42.656;23.394;2023-03-23T01:24:01;5.38;;;3.47;;
77722;SDS011;67811;42.656;23.394;2023-03-23T01:26:31;6.80;;;4.00;;
77722;SDS011;67811;42.656;23.394;2023-03-23T01:29:02;5.13;;;3.75;;
77722;SDS011;67811;42.656;23.394;2023-03-23T01:31:32;10.07;;;4.63;;
77722;SDS011;67811;42.656;23.394;2023-03-23T01:34:03;9.30;;;5.15;;
77722;SDS011;67811;42.656;23.394;2023-03-23T01:36:35;9.20;;;5.72;;
77722;SDS011;67811;42.656;23.394;2023-03-23T01:39:06;8.45;;;5.28;;
77722;SDS011;67811;42.656;23.394;2023-03-23T01:41:36;8.48;;;5.20;;
77722;SDS011;67811;42.656;23.394;2023-03-23T01:44:59;6.85;;;4.25;;
77722;SDS011;67811;42.656;23.394;2023-03-23T01:47:16;10.75;;;5.30;;
77722;SDS011;67811;42.656;23.394;2023-03-23T01:49:49;8.85;;;4.45;;
77722;SDS011;67811;42.656;23.394;2023-03-23T01:52:22;12.10;;;6.82;;
77722;SDS011;67811;42.656;23.394;2023-03-23T01:54:56;13.20;;;6.95;;
77722;SDS011;67811;42.656;23.394;2023-03-23T01:57:27;12.80;;;7.47;;
77722;SDS011;67811;42.656;23.394;2023-03-23T01:59:59;8.13;;;6.25;;
77722;SDS011;67811;42.656;23.394;2023-03-23T02:02:34;12.68;;;6.10;;
77722;SDS011;67811;42.656;23.394;2023-03-23T02:05:07;10.25;;;6.13;;
77722;SDS011;67811;42.656;23.394;2023-03-23T02:07:42;8.77;;;5.25;;
77722;SDS011;67811;42.656;23.394;2023-03-23T02:10:14;10.57;;;6.40;;
77722;SDS011;67811;42.656;23.394;2023-03-23T02:12:45;11.63;;;6.30;;
77722;SDS011;67811;42.656;23.394;2023-03-23T02:15:15;9.40;;;5.13;;
77722;SDS011;67811;42.656;23.394;2023-03-23T02:17:47;7.35;;;3.67;;
77722;SDS011;67811;42.656;23.394;2023-03-23T02:20:39;7.57;;;5.88;;
77722;SDS011;67811;42.656;23.394;2023-03-23T02:23:32;7.53;;;3.88;;
77722;SDS011;67811;42.656;23.394;2023-03-23T02:26:19;8.55;;;4.28;;
77722;SDS011;67811;42.656;23.394;2023-03-23T02:29:06;5.45;;;3.65;;
77722;SDS011;67811;42.656;23.394;2023-03-23T02:31:49;7.18;;;4.95;;
77722;SDS011;67811;42.656;23.394;2023-03-23T02:34:36;7.70;;;4.90;;
77722;SDS011;67811;42.656;23.394;2023-03-23T02:37:11;11.43;;;6.25;;
77722;SDS011;67811;42.656;23.394;2023-03-23T02:39:47;15.88;;;5.75;;
77722;SDS011;67811;42.656;23.394;2023-03-23T02:42:21;9.73;;;6.53;;
77722;SDS011;67811;42.656;23.394;2023-03-23T02:44:56;10.20;;;5.60;;
77722;SDS011;67811;42.656;23.394;2023-03-23T02:47:29;7.70;;;4.57;;
77722;SDS011;67811;42.656;23.394;2023-03-23T02:50:01;11.57;;;6.25;;
77722;SDS011;67811;42.656;23.394;2023-03-23T02:52:34;10.73;;;6.28;;
77722;SDS011;67811;42.656;23.394;2023-03-23T02:55:07;15.93;;;9.93;;
77722;SDS011;67811;42.656;23.394;2023-03-23T02:57:39;14.38;;;6.90;;
77722;SDS011;67811;42.656;23.394;2023-03-23T03:00:11;12.02;;;7.18;;
77722;SDS011;67811;42.656;23.394;2023-03-23T03:02:44;15.45;;;9.43;;
77722;SDS011;67811;42.656;23.394;2023-03-23T03:05:19;11.75;;;9.38;;
77722;SDS011;67811;42.656;23.394;2023-03-23T03:07:59;24.95;;;10.20;;
77722;SDS011;67811;42.656;23.394;2023-03-23T03:10:36;11.90;;;8.10;;
77722;SDS011;67811;42.656;23.394;2023-03-23T03:13:14;9.40;;;7.38;;
77722;SDS011;67811;42.656;23.394;2023-03-23T03:15:56;16.17;;;8.50;;
77722;SDS011;67811;42.656;23.394;2023-03-23T03:18:31;19.00;;;11.45;;
77722;SDS011;67811;42.656;23.394;2023-03-23T03:21:09;13.40;;;8.50;;
77722;SDS011;67811;42.656;23.394;2023-03-23T03:23:43;13.65;;;8.07;;
77722;SDS011;67811;42.656;23.394;2023-03-23T03:26:16;18.20;;;7.75;;
77722;SDS011;67811;42.656;23.394;2023-03-23T03:28:47;15.68;;;9.57;;
77722;SDS011;67811;42.656;23.394;2023-03-23T03:31:20;9.65;;;5.80;;
77722;SDS011;67811;42.656;23.394;2023-03-23T03:33:56;16.77;;;6.40;;
77722;SDS011;67811;42.656;23.394;2023-03-23T03:36:29;11.82;;;7.72;;
77722;SDS011;67811;42.656;23.394;2023-03-23T03:39:03;11.23;;;6.78;;
77722;SDS011;67811;42.656;23.394;2023-03-23T03:41:36;8.25;;;6.10;;
77722;SDS011;67811;42.656;23.394;2023-03-23T03:44:07;14.40;;;7.35;;
77722;SDS011;67811;42.656;23.394;2023-03-23T03:46:38;9.10;;;7.85;;
77722;SDS011;67811;42.656;23.394;2023-03-23T03:49:10;7.03;;;5.80;;
77722;SDS011;67811;42.656;23.394;2023-03-23T03:51:42;8.63;;;5.55;;
77722;SDS011;67811;42.656;23.394;2023-03-23T03:54:14;9.57;;;7.45;;
77722;SDS011;67811;42.656;23.394;2023-03-23T03:56:45;10.25;;;5.30;;
77722;SDS011;67811;42.656;23.394;2023-03-23T03:59:15;10.85;;;6.68;;
77722;SDS011;67811;42.656;23.394;2023-03-23T04:01:46;9.57;;;4.82;;
77722;SDS011;67811;42.656;23.394;2023-03-23T04:04:16;14.45;;;8.52;;
77722;SDS011;67811;42.656;23.394;2023-03-23T04:06:49;9.32;;;7.32;;
77722;SDS011;67811;42.656;23.394;2023-03-23T04:09:19;9.38;;;7.20;;
77722;SDS011;67811;42.656;23.394;2023-03-23T04:11:50;7.80;;;4.78;;
77722;SDS011;67811;42.656;23.394;2023-03-23T04:14:20;8.32;;;6.35;;
77722;SDS011;67811;42.656;23.394;2023-03-23T04:16:50;6.13;;;4.57;;
77722;SDS011;67811;42.656;23.394;2023-03-23T04:19:21;9.00;;;4.90;;
77722;SDS011;67811;42.656;23.394;2023-03-23T04:21:53;5.68;;;3.03;;
77722;SDS011;67811;42.656;23.394;2023-03-23T04:24:24;7.43;;;5.18;;
77722;SDS011;67811;42.656;23.394;2023-03-23T04:26:54;6.93;;;4.53;;
77722;SDS011;67811;42.656;23.394;2023-03-23T04:29:25;5.90;;;4.55;;
77722;SDS011;67811;42.656;23.394;2023-03-23T04:31:55;2.70;;;2.38;;
77722;SDS011;67811;42.656;23.394;2023-03-23T04:34:26;5.03;;;3.65;;
77722;SDS011;67811;42.656;23.394;2023-03-23T04:36:58;5.18;;;3.00;;
77722;SDS011;67811;42.656;23.394;2023-03-23T04:39:29;4.90;;;3.95;;
77722;SDS011;67811;42.656;23.394;2023-03-23T04:41:59;13.05;;;4.70;;
77722;SDS011;67811;42.656;23.394;2023-03-23T04:44:30;5.55;;;2.78;;
77722;SDS011;67811;42.656;23.394;2023-03-23T04:47:01;5.05;;;2.88;;
77722;SDS011;67811;42.656;23.394;2023-03-23T04:49:31;5.18;;;3.20;;
77722;SDS011;67811;42.656;23.394;2023-03-23T04:52:03;6.97;;;4.00;;
77722;SDS011;67811;42.656;23.394;2023-03-23T04:54:34;8.00;;;4.78;;
77722;SDS011;67811;42.656;23.394;2023-03-23T04:57:05;10.05;;;5.97;;
77722;SDS011;67811;42.656;23.394;2023-03-23T04:59:35;7.72;;;6.55;;
77722;SDS011;67811;42.656;23.394;2023-03-23T05:02:06;7.57;;;5.40;;
77722;SDS011;67811;42.656;23.394;2023-03-23T05:04:37;6.15;;;5.22;;
77722;SDS011;67811;42.656;23.394;2023-03-23T05:07:10;12.52;;;7.50;;
77722;SDS011;67811;42.656;23.394;2023-03-23T05:09:40;11.43;;;5.80;;
77722;SDS011;67811;42.656;23.394;2023-03-23T05:12:11;11.85;;;6.75;;
77722;SDS011;67811;42.656;23.394;2023-03-23T05:14:42;9.10;;;5.82;;
77722;SDS011;67811;42.656;23.394;2023-03-23T05:17:12;9.85;;;7.05;;
77722;SDS011;67811;42.656;23.394;2023-03-23T05:19:44;13.00;;;7.95;;
77722;SDS011;67811;42.656;23.394;2023-03-23T05:22:16;11.25;;;7.43;;
77722;SDS011;67811;42.656;23.394;2023-03-23T05:24:47;11.90;;;9.18;;
77722;SDS011;67811;42.656;23.394;2023-03-23T05:27:18;11.70;;;7.20;;
77722;SDS011;67811;42.656;23.394;2023-03-23T05:29:49;10.95;;;5.53;;
77722;SDS011;67811;42.656;23.394;2023-03-23T05:32:19;10.30;;;5.88;;
77722;SDS011;67811;42.656;23.394;2023-03-23T05:34:50;9.75;;;7.38;;
77722;SDS011;67811;42.656;23.394;2023-03-23T05:37:22;12.18;;;6.47;;
77722;SDS011;67811;42.656;23.394;2023-03-23T05:39:52;10.93;;;6.15;;
77722;SDS011;67811;42.656;23.394;2023-03-23T05:42:23;8.63;;;6.00;;
77722;SDS011;67811;42.656;23.394;2023-03-23T05:44:54;12.20;;;5.70;;
77722;SDS011;67811;42.656;23.394;2023-03-23T05:47:24;16.67;;;7.72;;
77722;SDS011;67811;42.656;23.394;2023-03-23T05:49:55;11.95;;;7.63;;
77722;SDS011;67811;42.656;23.394;2023-03-23T05:52:27;10.60;;;6.72;;
77722;SDS011;67811;42.656;23.394;2023-03-23T05:54:57;13.40;;;8.15;;
77722;SDS011;67811;42.656;23.394;2023-03-23T05:57:28;10.40;;;7.57;;
77722;SDS011;67811;42.656;23.394;2023-03-23T05:59:59;16.90;;;7.32;;
77722;SDS011;67811;42.656;23.394;2023-03-23T06:02:30;14.90;;;6.85;;
77722;SDS011;67811;42.656;23.394;2023-03-23T06:05:01;11.90;;;7.43;;
77722;SDS011;67811;42.656;23.394;2023-03-23T06:07:33;9.98;;;6.60;;
77722;SDS011;67811;42.656;23.394;2023-03-23T06:10:04;10.57;;;8.07;;
77722;SDS011;67811;42.656;23.394;2023-03-23T06:12:35;11.98;;;7.93;;
77722;SDS011;67811;42.656;23.394;2023-03-23T06:15:06;11.45;;;7.45;;
77722;SDS011;67811;42.656;23.394;2023-03-23T06:17:38;15.40;;;8.40;;
77722;SDS011;67811;42.656;23.394;2023-03-23T06:20:09;12.80;;;7.90;;
77722;SDS011;67811;42.656;23.394;2023-03-23T06:22:42;13.77;;;8.27;;
77722;SDS011;67811;42.656;23.394;2023-03-23T06:25:12;15.18;;;9.35;;
77722;SDS011;67811;42.656;23.394;2023-03-23T06:27:43;11.50;;;7.00;;
77722;SDS011;67811;42.656;23.394;2023-03-23T06:30:14;13.25;;;8.50;;
77722;SDS011;67811;42.656;23.394;2023-03-23T06:32:45;14.80;;;9.45;;
77722;SDS011;67811;42.656;23.394;2023-03-23T06:35:16;17.00;;;9.40;;
77722;SDS011;67811;42.656;23.394;2023-03-23T06:37:48;13.02;;;8.00;;
77722;SDS011;67811;42.656;23.394;2023-03-23T06:40:18;12.95;;;8.27;;
77722;SDS011;67811;42.656;23.394;2023-03-23T06:42:49;14.10;;;8.15;;
77722;SDS011;67811;42.656;23.394;2023-03-23T06:45:19;11.40;;;8.40;;
77722;SDS011;67811;42.656;23.394;2023-03-23T06:47:50;16.02;;;8.60;;
77722;SDS011;67811;42.656;23.394;2023-03-23T06:50:21;13.45;;;8.45;;
77722;SDS011;67811;42.656;23.394;2023-03-23T06:52:53;11.05;;;8.05;;
77722;SDS011;67811;42.656;23.394;2023-03-23T06:55:23;10.68;;;8.18;;
77722;SDS011;67811;42.656;23.394;2023-03-23T06:57:54;11.82;;;7.75;;
77722;SDS011;67811;42.656;23.394;2023-03-23T07:00:24;13.82;;;8.35;;
77722;SDS011;67811;42.656;23.394;2023-03-23T07:02:55;13.00;;;8.50;;
77722;SDS011;67811;42.656;23.394;2023-03-23T07:05:26;14.20;;;9.13;;
77722;SDS011;67811;42.656;23.394;2023-03-23T07:07:58;12.63;;;7.85;;
77722;SDS011;67811;42.656;23.394;2023-03-23T07:10:28;12.38;;;8.32;;
77722;SDS011;67811;42.656;23.394;2023-03-23T07:12:59;15.20;;;9.82;;
77722;SDS011;67811;42.656;23.394;2023-03-23T07:15:29;14.02;;;10.00;;
77722;SDS011;67811;42.656;23.394;2023-03-23T07:18:00;12.48;;;8.02;;
77722;SDS011;67811;42.656;23.394;2023-03-23T07:20:31;11.35;;;8.30;;
77722;SDS011;67811;42.656;23.394;2023-03-23T07:23:03;14.25;;;8.85;;
77722;SDS011;67811;42.656;23.394;2023-03-23T07:25:34;15.52;;;9.25;;
77722;SDS011;67811;42.656;23.394;2023-03-23T07:28:05;12.75;;;8.98;;
77722;SDS011;67811;42.656;23.394;2023-03-23T07:30:36;15.88;;;9.82;;
77722;SDS011;67811;42.656;23.394;2023-03-23T07:33:08;12.90;;;9.43;;
77722;SDS011;67811;42.656;23.394;2023-03-23T07:35:39;16.08;;;10.60;;
77722;SDS011;67811;42.656;23.394;2023-03-23T07:38:11;15.73;;;10.00;;
77722;SDS011;67811;42.656;23.394;2023-03-23T07:40:41;13.50;;;9.73;;
77722;SDS011;67811;42.656;23.394;2023-03-23T07:43:12;14.82;;;9.88;;
77722;SDS011;67811;42.656;23.394;2023-03-23T07:45:43;12.90;;;8.68;;
77722;SDS011;67811;42.656;23.394;2023-03-23T07:48:14;14.52;;;10.10;;
77722;SDS011;67811;42.656;23.394;2023-03-23T07:50:44;13.73;;;11.20;;
77722;SDS011;67811;42.656;23.394;2023-03-23T07:53:16;13.68;;;10.23;;
77722;SDS011;67811;42.656;23.394;2023-03-23T07:55:47;13.48;;;9.70;;
77722;SDS011;67811;42.656;23.394;2023-03-23T07:58:17;16.17;;;10.65;;
77722;SDS011;67811;42.656;23.394;2023-03-23T08:00:48;12.68;;;8.90;;
77722;SDS011;67811;42.656;23.394;2023-03-23T08:03:18;16.85;;;11.30;;
77722;SDS011;67811;42.656;23.394;2023-03-23T08:05:49;12.25;;;8.85;;
77722;SDS011;67811;42.656;23.394;2023-03-23T08:08:21;16.17;;;10.77;;
77722;SDS011;67811;42.656;23.394;2023-03-23T08:10:51;12.48;;;9.73;;
77722;SDS011;67811;42.656;23.394;2023-03-23T08:13:22;13.15;;;9.63;;
77722;SDS011;67811;42.656;23.394;2023-03-23T08:15:52;16.98;;;11.15;;
77722;SDS011;67811;42.656;23.394;2023-03-23T08:18:23;12.32;;;8.98;;
77722;SDS011;67811;42.656;23.394;2023-03-23T08:20:53;15.00;;;8.98;;
77722;SDS011;67811;42.656;23.394;2023-03-23T08:23:25;16.13;;;10.15;;
77722;SDS011;67811;42.656;23.394;2023-03-23T08:25:56;15.73;;;9.20;;
77722;SDS011;67811;42.656;23.394;2023-03-23T08:28:26;12.77;;;9.25;;
77722;SDS011;67811;42.656;23.394;2023-03-23T08:30:57;11.27;;;8.00;;
77722;SDS011;67811;42.656;23.394;2023-03-23T08:33:28;12.10;;;8.70;;
77722;SDS011;67811;42.656;23.394;2023-03-23T08:35:59;13.43;;;9.07;;
77722;SDS011;67811;42.656;23.394;2023-03-23T08:38:31;13.43;;;9.63;;
77722;SDS011;67811;42.656;23.394;2023-03-23T08:41:03;11.35;;;8.35;;
77722;SDS011;67811;42.656;23.394;2023-03-23T08:43:35;12.63;;;8.95;;
77722;SDS011;67811;42.656;23.394;2023-03-23T08:46:06;12.30;;;8.40;;
77722;SDS011;67811;42.656;23.394;2023-03-23T08:48:36;10.43;;;7.82;;
77722;SDS011;67811;42.656;23.394;2023-03-23T08:51:08;12.82;;;7.65;;
77722;SDS011;67811;42.656;23.394;2023-03-23T08:53:40;9.85;;;7.03;;
77722;SDS011;67811;42.656;23.394;2023-03-23T08:56:11;9.45;;;6.13;;
77722;SDS011;67811;42.656;23.394;2023-03-23T08:58:42;7.72;;;5.15;;
77722;SDS011;67811;42.656;23.394;2023-03-23T09:01:12;7.82;;;5.72;;
77722;SDS011;67811;42.656;23.394;2023-03-23T09:03:43;8.43;;;6.28;;
77722;SDS011;67811;42.656;23.394;2023-03-23T09:06:13;5.63;;;4.43;;
77722;SDS011;67811;42.656;23.394;2023-03-23T09:08:45;8.10;;;4.70;;
77722;SDS011;67811;42.656;23.394;2023-03-23T09:11:16;6.20;;;4.63;;
77722;SDS011;67811;42.656;23.394;2023-03-23T09:13:47;7.95;;;4.93;;
77722;SDS011;67811;42.656;23.394;2023-03-23T09:16:17;7.15;;;5.18;;
77722;SDS011;67811;42.656;23.394;2023-03-23T09:18:48;7.88;;;4.85;;
77722;SDS011;67811;42.656;23.394;2023-03-23T09:21:19;8.73;;;4.35;;
77722;SDS011;67811;42.656;23.394;2023-03-23T09:23:50;5.22;;;3.30;;
77722;SDS011;67811;42.656;23.394;2023-03-23T09:26:21;8.80;;;4.25;;
77722;SDS011;67811;42.656;23.394;2023-03-23T09:28:52;6.72;;;3.53;;
77722;SDS011;67811;42.656;23.394;2023-03-23T09:31:23;4.22;;;3.20;;
77722;SDS011;67811;42.656;23.394;2023-03-23T09:33:54;5.10;;;2.65;;
77722;SDS011;67811;42.656;23.394;2023-03-23T09:36:24;5.65;;;3.42;;
77722;SDS011;67811;42.656;23.394;2023-03-23T09:38:57;4.70;;;3.40;;
77722;SDS011;67811;42.656;23.394;2023-03-23T09:41:34;6.88;;;4.43;;
77722;SDS011;67811;42.656;23.394;2023-03-23T09:44:17;6.20;;;4.07;;
77722;SDS011;67811;42.656;23.394;2023-03-23T09:46:56;6.45;;;4.07;;
77722;SDS011;67811;42.656;23.394;2023-03-23T09:49:32;5.38;;;2.92;;
77722;SDS011;67811;42.656;23.394;2023-03-23T09:52:08;4.55;;;3.55;;
77722;SDS011;67811;42.656;23.394;2023-03-23T09:54:43;4.78;;;3.13;;
77722;SDS011;67811;42.656;23.394;2023-03-23T09:57:19;5.32;;;4.18;;
77722;SDS011;67811;42.656;23.394;2023-03-23T09:59:56;5.85;;;3.55;;
77722;SDS011;67811;42.656;23.394;2023-03-23T10:02:34;4.30;;;3.40;;
77722;SDS011;67811;42.656;23.394;2023-03-23T10:05:22;4.47;;;3.03;;
77722;SDS011;67811;42.656;23.394;2023-03-23T10:07:57;3.88;;;2.97;;
77722;SDS011;67811;42.656;23.394;2023-03-23T10:10:35;4.38;;;3.20;;
77722;SDS011;67811;42.656;23.394;2023-03-23T10:13:17;5.60;;;3.40;;
77722;SDS011;67811;42.656;23.394;2023-03-23T10:15:53;4.78;;;3.13;;
77722;SDS011;67811;42.656;23.394;2023-03-23T10:18:26;4.03;;;2.85;;
77722;SDS011;67811;42.656;23.394;2023-03-23T10:21:01;3.30;;;2.75;;
77722;SDS011;67811;42.656;23.394;2023-03-23T10:23:40;3.47;;;2.88;;
77722;SDS011;67811;42.656;23.394;2023-03-23T10:26:21;4.88;;;3.90;;
77722;SDS011;67811;42.656;23.394;2023-03-23T10:29:03;4.18;;;3.00;;
77722;SDS011;67811;42.656;23.394;2023-03-23T10:31:43;4.22;;;2.70;;
77722;SDS011;67811;42.656;23.394;2023-03-23T10:34:19;6.50;;;3.13;;
77722;SDS011;67811;42.656;23.394;2023-03-23T10:36:59;6.68;;;4.47;;
77722;SDS011;67811;42.656;23.394;2023-03-23T10:39:38;8.02;;;4.30;;
77722;SDS011;67811;42.656;23.394;2023-03-23T10:42:22;5.20;;;3.60;;
77722;SDS011;67811;42.656;23.394;2023-03-23T10:44:55;7.20;;;3.28;;
77722;SDS011;67811;42.656;23.394;2023-03-23T10:47:28;4.78;;;3.33;;
77722;SDS011;67811;42.656;23.394;2023-03-23T10:49:59;4.70;;;2.88;;
77722;SDS011;67811;42.656;23.394;2023-03-23T10:52:32;10.82;;;4.45;;
77722;SDS011;67811;42.656;23.394;2023-03-23T10:57:40;5.72;;;3.08;;
77722;SDS011;67811;42.656;23.394;2023-03-23T11:00:17;4.57;;;3.00;;
77722;SDS011;67811;42.656;23.394;2023-03-23T11:02:57;5.35;;;3.13;;
77722;SDS011;67811;42.656;23.394;2023-03-23T11:05:32;4.80;;;2.60;;
77722;SDS011;67811;42.656;23.394;2023-03-23T11:08:10;5.60;;;2.85;;
77722;SDS011;67811;42.656;23.394;2023-03-23T11:10:51;5.13;;;4.03;;
77722;SDS011;67811;42.656;23.394;2023-03-23T11:13:28;5.13;;;3.03;;
77722;SDS011;67811;42.656;23.394;2023-03-23T11:16:01;4.95;;;3.08;;
77722;SDS011;67811;42.656;23.394;2023-03-23T11:18:34;5.45;;;3.20;;
77722;SDS011;67811;42.656;23.394;2023-03-23T11:21:06;4.63;;;2.95;;
77722;SDS011;67811;42.656;23.394;2023-03-23T11:26:13;3.92;;;3.03;;
77722;SDS011;67811;42.656;23.394;2023-03-23T11:28:48;4.68;;;2.72;;
77722;SDS011;67811;42.656;23.394;2023-03-23T11:31:24;5.55;;;3.20;;
77722;SDS011;67811;42.656;23.394;2023-03-23T11:33:59;3.88;;;2.50;;
77722;SDS011;67811;42.656;23.394;2023-03-23T11:36:33;5.57;;;3.45;;
77722;SDS011;67811;42.656;23.394;2023-03-23T11:41:49;5.63;;;4.07;;
77722;SDS011;67811;42.656;23.394;2023-03-23T11:44:23;4.35;;;2.53;;
77722;SDS011;67811;42.656;23.394;2023-03-23T11:46:58;4.47;;;2.95;;
77722;SDS011;67811;42.656;23.394;2023-03-23T11:49:35;6.32;;;2.83;;
77722;SDS011;67811;42.656;23.394;2023-03-23T11:52:13;4.80;;;2.50;;
77722;SDS011;67811;42.656;23.394;2023-03-23T11:54:52;3.97;;;3.15;;
77722;SDS011;67811;42.656;23.394;2023-03-23T11:57:30;9.13;;;3.97;;
77722;SDS011;67811;42.656;23.394;2023-03-23T12:00:05;6.50;;;3.17;;
77722;SDS011;67811;42.656;23.394;2023-03-23T12:05:45;5.25;;;2.78;;
77722;SDS011;67811;42.656;23.394;2023-03-23T12:08:30;5.25;;;3.03;;
77722;SDS011;67811;42.656;23.394;2023-03-23T12:11:19;5.70;;;3.53;;
77722;SDS011;67811;42.656;23.394;2023-03-23T12:13:59;5.70;;;2.88;;
77722;SDS011;67811;42.656;23.394;2023-03-23T12:16:46;5.90;;;3.13;;
77722;SDS011;67811;42.656;23.394;2023-03-23T12:19:25;3.50;;;2.33;;
77722;SDS011;67811;42.656;23.394;2023-03-23T12:22:03;3.47;;;2.47;;
77722;SDS011;67811;42.656;23.394;2023-03-23T12:24:43;7.20;;;2.92;;
77722;SDS011;67811;42.656;23.394;2023-03-23T12:27:23;4.95;;;3.17;;
77722;SDS011;67811;42.656;23.394;2023-03-23T12:30:04;4.60;;;2.55;;
77722;SDS011;67811;42.656;23.394;2023-03-23T12:32:49;4.88;;;2.90;;
77722;SDS011;67811;42.656;23.394;2023-03-23T12:35:32;3.88;;;3.13;;
77722;SDS011;67811;42.656;23.394;2023-03-23T12:38:12;4.35;;;2.78;;
77722;SDS011;67811;42.656;23.394;2023-03-23T12:41:07;4.50;;;3.50;;
77722;SDS011;67811;42.656;23.394;2023-03-23T12:43:48;5.60;;;2.88;;
77722;SDS011;67811;42.656;23.394;2023-03-23T12:46:25;4.13;;;3.25;;
77722;SDS011;67811;42.656;23.394;2023-03-23T12:49:09;5.07;;;2.90;;
77722;SDS011;67811;42.656;23.394;2023-03-23T12:51:45;4.90;;;2.65;;
77722;SDS011;67811;42.656;23.394;2023-03-23T12:54:23;5.10;;;2.50;;
77722;SDS011;67811;42.656;23.394;2023-03-23T12:57:00;6.32;;;3.28;;
77722;SDS011;67811;42.656;23.394;2023-03-23T12:59:38;6.68;;;2.72;;
77722;SDS011;67811;42.656;23.394;2023-03-23T13:02:16;4.75;;;3.63;;
77722;SDS011;67811;42.656;23.394;2023-03-23T13:05:08;6.50;;;3.33;;
77722;SDS011;67811;42.656;23.394;2023-03-23T13:07:43;3.97;;;2.25;;
77722;SDS011;67811;42.656;23.394;2023-03-23T13:10:18;3.80;;;2.80;;
77722;SDS011;67811;42.656;23.394;2023-03-23T13:12:51;4.53;;;3.05;;
77722;SDS011;67811;42.656;23.394;2023-03-23T13:15:26;5.45;;;2.58;;
77722;SDS011;67811;42.656;23.394;2023-03-23T13:18:04;6.40;;;3.90;;
77722;SDS011;67811;42.656;23.394;2023-03-23T13:23:19;5.88;;;2.90;;
77722;SDS011;67811;42.656;23.394;2023-03-23T13:25:52;3.70;;;2.40;;
77722;SDS011;67811;42.656;23.394;2023-03-23T13:28:27;6.50;;;3.50;;
77722;SDS011;67811;42.656;23.394;2023-03-23T13:31:00;5.57;;;2.65;;
77722;SDS011;67811;42.656;23.394;2023-03-23T13:33:33;6.22;;;3.50;;
77722;SDS011;67811;42.656;23.394;2023-03-23T13:36:10;4.90;;;3.42;;
77722;SDS011;67811;42.656;23.394;2023-03-23T13:38:44;4.88;;;3.17;;
77722;SDS011;67811;42.656;23.394;2023-03-23T13:41:18;5.82;;;2.55;;
77722;SDS011;67811;42.656;23.394;2023-03-23T13:43:50;3.42;;;2.70;;
77722;SDS011;67811;42.656;23.394;2023-03-23T13:46:24;3.75;;;2.67;;
77722;SDS011;67811;42.656;23.394;2023-03-23T13:49:18;3.55;;;2.22;;
77722;SDS011;67811;42.656;23.394;2023-03-23T13:52:05;6.15;;;3.70;;
77722;SDS011;67811;42.656;23.394;2023-03-23T13:54:46;3.00;;;2.65;;
77722;SDS011;67811;42.656;23.394;2023-03-23T13:57:23;6.82;;;3.28;;
77722;SDS011;67811;42.656;23.394;2023-03-23T14:00:31;4.32;;;2.83;;
77722;SDS011;67811;42.656;23.394;2023-03-23T14:03:09;4.22;;;2.78;;
77722;SDS011;67811;42.656;23.394;2023-03-23T14:05:43;3.55;;;2.47;;
77722;SDS011;67811;42.656;23.394;2023-03-23T14:08:22;5.32;;;3.58;;
77722;SDS011;67811;42.656;23.394;2023-03-23T14:10:55;4.63;;;2.53;;
77722;SDS011;67811;42.656;23.394;2023-03-23T14:13:28;3.05;;;2.25;;
77722;SDS011;67811;42.656;23.394;2023-03-23T14:16:02;3.38;;;2.28;;
77722;SDS011;67811;42.656;23.394;2023-03-23T14:18:35;4.78;;;3.53;;
77722;SDS011;67811;42.656;23.394;2023-03-23T14:21:13;5.07;;;2.50;;
77722;SDS011;67811;42.656;23.394;2023-03-23T14:23:46;3.60;;;2.67;;
77722;SDS011;67811;42.656;23.394;2023-03-23T14:26:17;3.08;;;1.85;;
77722;SDS011;67811;42.656;23.394;2023-03-23T14:28:50;5.63;;;3.38;;
77722;SDS011;67811;42.656;23.394;2023-03-23T14:31:23;6.13;;;3.15;;
77722;SDS011;67811;42.656;23.394;2023-03-23T14:33:55;4.65;;;3.25;;
77722;SDS011;67811;42.656;23.394;2023-03-23T14:36:26;4.45;;;2.25;;
77722;SDS011;67811;42.656;23.394;2023-03-23T14:39:02;5.47;;;2.80;;
77722;SDS011;67811;42.656;23.394;2023-03-23T14:41:35;3.50;;;2.45;;
77722;SDS011;67811;42.656;23.394;2023-03-23T14:44:06;4.68;;;2.88;;
77722;SDS011;67811;42.656;23.394;2023-03-23T14:46:39;3.83;;;2.60;;
77722;SDS011;67811;42.656;23.394;2023-03-23T14:49:13;3.13;;;2.28;;
77722;SDS011;67811;42.656;23.394;2023-03-23T14:51:49;5.22;;;4.00;;
77722;SDS011;67811;42.656;23.394;2023-03-23T14:54:23;4.45;;;3.00;;
77722;SDS011;67811;42.656;23.394;2023-03-23T14:56:55;5.28;;;2.67;;
77722;SDS011;67811;42.656;23.394;2023-03-23T14:59:26;3.58;;;2.33;;
77722;SDS011;67811;42.656;23.394;2023-03-23T15:01:56;4.88;;;3.00;;
77722;SDS011;67811;42.656;23.394;2023-03-23T15:04:27;4.93;;;3.30;;
77722;SDS011;67811;42.656;23.394;2023-03-23T15:06:59;3.53;;;2.58;;
77722;SDS011;67811;42.656;23.394;2023-03-23T15:09:34;5.47;;;3.10;;
77722;SDS011;67811;42.656;23.394;2023-03-23T15:12:12;7.00;;;2.72;;
77722;SDS011;67811;42.656;23.394;2023-03-23T15:14:52;5.32;;;3.33;;
77722;SDS011;67811;42.656;23.394;2023-03-23T15:17:25;4.05;;;2.45;;
77722;SDS011;67811;42.656;23.394;2023-03-23T15:19:57;3.13;;;2.65;;